Time;durP1;ratioP1;P1;durP2;ratioP2;P2;SDS_P1;SDS_P2;PMS_P1;PMS_P2;Temp;Humidity;BMP_temperature;BMP_pressure;BME280_temperature;BME280_humidity;BME280_pressure;Samples;Min_cycle;Max_cycle;Signal;HPM_P1;HPM_P2
2024/01/27 00:00:26;;;;;;;3.05;1.83;;;;;;;;;;5015220;28;20050;-29
2024/01/27 00:02:52;;;;;;;6.43;1.77;;;;;;;;;;5014889;28;20065;-28
2024/01/27 00:05:18;;;;;;;3.35;1.60;;;;;;;;;;5015594;28;20022;-31
2024/01/27 00:07:44;;;;;;;4.32;1.58;;;;;;;;;;5015057;28;20018;-31
2024/01/27 00:10:11;;;;;;;1.58;1.42;;;;;;;;;;5014912;28;20023;-28
2024/01/27 00:12:37;;;;;;;2.78;1.75;;;;;;;;;;5014767;28;20149;-32
2024/01/27 00:15:03;;;;;;;2.05;1.63;;;;;;;;;;5015264;28;20045;-29
2024/01/27 00:17:29;;;;;;;3.22;1.77;;;;;;;;;;5014858;28;20096;-30
2024/01/27 00:19:56;;;;;;;4.43;1.98;;;;;;;;;;5015193;28;20022;-31
2024/01/27 00:22:22;;;;;;;3.63;1.95;;;;;;;;;;5015083;28;20018;-30
2024/01/27 00:24:48;;;;;;;2.05;1.58;;;;;;;;;;5013909;28;20445;-30
2024/01/27 00:27:14;;;;;;;2.50;1.55;;;;;;;;;;5013926;28;20468;-30
2024/01/27 00:29:40;;;;;;;2.60;1.60;;;;;;;;;;5015130;28;20066;-30
2024/01/27 00:32:06;;;;;;;3.85;1.88;;;;;;;;;;5014754;28;20062;-29
2024/01/27 00:34:33;;;;;;;3.10;1.70;;;;;;;;;;5015382;28;20065;-29
2024/01/27 00:36:59;;;;;;;2.83;1.65;;;;;;;;;;5014970;28;20030;-31
2024/01/27 00:39:25;;;;;;;2.85;1.73;;;;;;;;;;5015012;28;20091;-30
2024/01/27 00:41:54;;;;;;;2.88;1.65;;;;;;;;;;5014621;28;20026;-30
2024/01/27 00:44:20;;;;;;;2.60;1.27;;;;;;;;;;5014655;28;20018;-31
2024/01/27 00:46:46;;;;;;;3.63;1.42;;;;;;;;;;5014963;28;20099;-29
2024/01/27 00:49:13;;;;;;;1.83;1.42;;;;;;;;;;5014658;28;20458;-31
2024/01/27 00:51:39;;;;;;;2.70;1.50;;;;;;;;;;5014655;28;20026;-30
2024/01/27 00:54:06;;;;;;;2.42;1.77;;;;;;;;;;5014599;28;20030;-30
2024/01/27 00:56:32;;;;;;;5.00;2.60;;;;;;;;;;5014865;28;20102;-30
2024/01/27 00:58:58;;;;;;;3.15;1.83;;;;;;;;;;5014864;28;20018;-31
2024/01/27 01:01:24;;;;;;;1.85;1.52;;;;;;;;;;5013565;28;20105;-30
2024/01/27 01:03:51;;;;;;;3.08;1.50;;;;;;;;;;5013330;28;20503;-30
2024/01/27 01:06:17;;;;;;;2.72;1.52;;;;;;;;;;5014524;28;20041;-30
2024/01/27 01:08:43;;;;;;;3.03;1.85;;;;;;;;;;5014789;28;20389;-32
2024/01/27 01:11:09;;;;;;;2.45;1.60;;;;;;;;;;5014485;28;20084;-30
2024/01/27 01:13:35;;;;;;;1.92;1.38;;;;;;;;;;5014399;28;20442;-30
2024/01/27 01:16:03;;;;;;;1.98;1.45;;;;;;;;;;5013352;28;20025;-30
2024/01/27 01:18:29;;;;;;;4.20;1.52;;;;;;;;;;5014331;28;20473;-29
2024/01/27 01:20:55;;;;;;;3.28;2.10;;;;;;;;;;5014348;28;20401;-30
2024/01/27 01:23:22;;;;;;;3.42;1.73;;;;;;;;;;5017429;28;20025;-29
2024/01/27 01:25:48;;;;;;;2.08;1.42;;;;;;;;;;5018236;28;20388;-32
2024/01/27 01:28:14;;;;;;;2.30;1.63;;;;;;;;;;5017969;28;20113;-29
2024/01/27 01:30:40;;;;;;;2.05;1.55;;;;;;;;;;5017923;28;20026;-30
2024/01/27 01:33:06;;;;;;;2.25;1.40;;;;;;;;;;5018272;28;20026;-31
2024/01/27 01:35:32;;;;;;;2.05;1.75;;;;;;;;;;5017758;28;20152;-32
2024/01/27 01:37:58;;;;;;;2.55;1.42;;;;;;;;;;5017774;28;20416;-31
2024/01/27 01:40:25;;;;;;;3.08;1.65;;;;;;;;;;5017993;28;20030;-29
2024/01/27 01:42:52;;;;;;;5.25;1.98;;;;;;;;;;5017623;28;20033;-31
2024/01/27 01:45:18;;;;;;;2.25;1.40;;;;;;;;;;5018415;28;20030;-28
2024/01/27 01:47:45;;;;;;;7.43;2.08;;;;;;;;;;5017599;28;20330;-31
2024/01/27 01:50:11;;;;;;;1.77;1.63;;;;;;;;;;5017862;28;20148;-29
2024/01/27 01:52:38;;;;;;;4.20;1.52;;;;;;;;;;5017692;28;20037;-30
2024/01/27 01:55:05;;;;;;;3.45;1.60;;;;;;;;;;5017470;28;20500;-31
2024/01/27 01:57:31;;;;;;;3.53;2.05;;;;;;;;;;5017303;28;20114;-30
2024/01/27 01:59:57;;;;;;;2.85;1.58;;;;;;;;;;5017632;28;20105;-30
2024/01/27 02:02:23;;;;;;;5.07;1.70;;;;;;;;;;5019192;28;20037;-31
2024/01/27 02:04:49;;;;;;;2.15;1.75;;;;;;;;;;5018823;28;20096;-31
2024/01/27 02:07:15;;;;;;;3.50;1.45;;;;;;;;;;5017144;28;20040;-29
2024/01/27 02:09:42;;;;;;;4.20;2.53;;;;;;;;;;5017393;28;20369;-31
2024/01/27 02:12:08;;;;;;;3.28;1.50;;;;;;;;;;5017305;28;20022;-30
2024/01/27 02:14:34;;;;;;;3.65;1.98;;;;;;;;;;5017081;28;20449;-27
2024/01/27 02:17:00;;;;;;;2.10;1.30;;;;;;;;;;5016907;28;20048;-28
2024/01/27 02:19:26;;;;;;;2.60;1.65;;;;;;;;;;5016995;28;20025;-28
2024/01/27 02:21:53;;;;;;;5.82;1.92;;;;;;;;;;5016859;28;20033;-29
2024/01/27 02:24:19;;;;;;;3.50;1.92;;;;;;;;;;5016883;28;20021;-30
2024/01/27 02:26:45;;;;;;;2.05;1.40;;;;;;;;;;5017102;28;20034;-29
2024/01/27 02:29:11;;;;;;;4.65;1.63;;;;;;;;;;5017098;28;20021;-32
2024/01/27 02:31:37;;;;;;;3.30;1.67;;;;;;;;;;5016770;28;20037;-29
2024/01/27 02:34:03;;;;;;;2.80;1.60;;;;;;;;;;5016313;28;20022;-32
2024/01/27 02:36:29;;;;;;;2.20;1.40;;;;;;;;;;5017116;28;20057;-26
2024/01/27 02:38:55;;;;;;;4.88;1.52;;;;;;;;;;5015638;28;20335;-26
2024/01/27 02:41:22;;;;;;;3.90;1.67;;;;;;;;;;5016847;28;20120;-29
2024/01/27 02:43:48;;;;;;;1.70;1.40;;;;;;;;;;5016500;28;20018;-30
2024/01/27 02:46:15;;;;;;;4.25;1.88;;;;;;;;;;5016488;28;20105;-30
2024/01/27 02:48:45;;;;;;;2.70;1.92;;;;;;;;;;5016710;28;20092;-30
2024/01/27 02:51:11;;;;;;;2.92;1.23;;;;;;;;;;5016436;28;20034;-30
2024/01/27 02:53:37;;;;;;;3.38;1.30;;;;;;;;;;5016335;28;20049;-29
2024/01/27 02:56:07;;;;;;;3.35;1.77;;;;;;;;;;5016508;28;20080;-27
2024/01/27 02:58:33;;;;;;;1.97;1.30;;;;;;;;;;5016575;28;20022;-30
2024/01/27 03:00:59;;;;;;;2.00;1.55;;;;;;;;;;5016515;28;20108;-29
2024/01/27 03:03:25;;;;;;;3.45;1.50;;;;;;;;;;5015903;28;20064;-32
2024/01/27 03:05:52;;;;;;;2.83;1.50;;;;;;;;;;5016461;28;20030;-33
2024/01/27 03:08:18;;;;;;;1.50;1.40;;;;;;;;;;5016394;28;20054;-31
2024/01/27 03:10:44;;;;;;;1.30;1.20;;;;;;;;;;5016626;28;20041;-30
2024/01/27 03:13:10;;;;;;;2.97;1.63;;;;;;;;;;5016169;28;20103;-26
2024/01/27 03:15:37;;;;;;;2.17;1.52;;;;;;;;;;5015896;28;20041;-29
2024/01/27 03:18:04;;;;;;;2.45;1.58;;;;;;;;;;5016625;28;20159;-27
2024/01/27 03:20:33;;;;;;;2.30;1.35;;;;;;;;;;5015875;28;20026;-26
2024/01/27 03:22:59;;;;;;;1.63;1.13;;;;;;;;;;5015773;28;20025;-34
2024/01/27 03:25:25;;;;;;;1.90;1.35;;;;;;;;;;5016023;28;20022;-28
2024/01/27 03:27:52;;;;;;;2.67;1.40;;;;;;;;;;5016016;28;20157;-28
2024/01/27 03:30:18;;;;;;;2.20;1.48;;;;;;;;;;5015695;28;20416;-31
2024/01/27 03:32:44;;;;;;;2.38;1.40;;;;;;;;;;5015610;28;20024;-28
2024/01/27 03:35:10;;;;;;;3.65;1.58;;;;;;;;;;5015625;28;20416;-27
2024/01/27 03:37:37;;;;;;;2.22;1.30;;;;;;;;;;5015756;28;20405;-32
2024/01/27 03:40:03;;;;;;;2.40;1.42;;;;;;;;;;5015808;28;20105;-30
2024/01/27 03:42:30;;;;;;;2.20;1.17;;;;;;;;;;5015652;28;20092;-28
2024/01/27 03:44:56;;;;;;;1.60;1.20;;;;;;;;;;5015529;28;20040;-30
2024/01/27 03:47:22;;;;;;;2.72;1.35;;;;;;;;;;5014797;28;20455;-32
2024/01/27 03:49:48;;;;;;;3.22;1.30;;;;;;;;;;5015349;28;20057;-28
2024/01/27 03:52:14;;;;;;;3.08;1.50;;;;;;;;;;5015229;28;20052;-27
2024/01/27 03:54:40;;;;;;;3.38;1.70;;;;;;;;;;5015341;28;20025;-28
2024/01/27 03:57:06;;;;;;;2.83;1.38;;;;;;;;;;5015960;28;20430;-28
2024/01/27 03:59:32;;;;;;;2.10;1.30;;;;;;;;;;5015283;28;20068;-34
2024/01/27 04:01:59;;;;;;;1.83;1.20;;;;;;;;;;5015357;28;20026;-30
2024/01/27 04:04:25;;;;;;;2.28;1.08;;;;;;;;;;5013977;28;20173;-32
2024/01/27 04:06:51;;;;;;;1.85;1.48;;;;;;;;;;5015362;28;20025;-32
2024/01/27 04:09:18;;;;;;;4.45;1.83;;;;;;;;;;5015071;28;20453;-28
2024/01/27 04:11:44;;;;;;;1.83;1.50;;;;;;;;;;5014995;28;20483;-27
2024/01/27 04:14:10;;;;;;;2.70;1.40;;;;;;;;;;5015203;28;20033;-29
2024/01/27 04:16:36;;;;;;;1.38;1.27;;;;;;;;;;5014848;28;20479;-32
2024/01/27 04:19:02;;;;;;;2.97;1.50;;;;;;;;;;5015234;28;20026;-29
2024/01/27 04:21:28;;;;;;;1.88;1.30;;;;;;;;;;5015216;28;20026;-28
2024/01/27 04:23:55;;;;;;;2.22;1.35;;;;;;;;;;5014807;28;20041;-30
2024/01/27 04:26:21;;;;;;;2.47;1.38;;;;;;;;;;5014933;28;20350;-28
2024/01/27 04:28:47;;;;;;;2.78;1.38;;;;;;;;;;5013887;28;20021;-30
2024/01/27 04:31:13;;;;;;;1.92;1.15;;;;;;;;;;5015399;28;20036;-26
2024/01/27 04:33:40;;;;;;;3.38;1.52;;;;;;;;;;5015267;28;20061;-28
2024/01/27 04:36:10;;;;;;;2.78;1.35;;;;;;;;;;5014976;28;20037;-29
2024/01/27 04:38:36;;;;;;;1.42;1.25;;;;;;;;;;5014771;28;20018;-31
2024/01/27 04:41:02;;;;;;;3.85;1.42;;;;;;;;;;5015040;28;20106;-28
2024/01/27 04:43:29;;;;;;;1.65;1.38;;;;;;;;;;5014931;28;20041;-31
2024/01/27 04:45:55;;;;;;;2.35;1.40;;;;;;;;;;5014749;28;20148;-29
2024/01/27 04:48:21;;;;;;;2.97;1.42;;;;;;;;;;5014996;28;20026;-26
2024/01/27 04:50:48;;;;;;;2.08;1.38;;;;;;;;;;5014611;28;20026;-27
2024/01/27 04:53:14;;;;;;;2.78;2.22;;;;;;;;;;5014512;28;20091;-29
2024/01/27 04:55:40;;;;;;;2.47;1.60;;;;;;;;;;5014581;28;20101;-27
2024/01/27 04:58:07;;;;;;;2.97;1.13;;;;;;;;;;5016935;28;20462;-31
2024/01/27 05:00:33;;;;;;;2.67;1.60;;;;;;;;;;5018736;28;20055;-28
2024/01/27 05:03:04;;;;;;;5.85;1.90;;;;;;;;;;5018395;28;20045;-32
2024/01/27 05:05:30;;;;;;;2.35;1.55;;;;;;;;;;5018399;28;20022;-30
2024/01/27 05:07:58;;;;;;;2.95;1.73;;;;;;;;;;5018216;28;20096;-31
2024/01/27 05:10:25;;;;;;;2.97;1.05;;;;;;;;;;5018580;28;20105;-30
2024/01/27 05:12:51;;;;;;;2.58;1.27;;;;;;;;;;5018168;28;20091;-30
2024/01/27 05:15:17;;;;;;;1.77;1.50;;;;;;;;;;5018183;28;20033;-31
2024/01/27 05:17:43;;;;;;;2.88;1.48;;;;;;;;;;5018374;28;20069;-30
2024/01/27 05:20:10;;;;;;;2.83;1.67;;;;;;;;;;5018142;28;20330;-30
2024/01/27 05:22:36;;;;;;;2.33;1.10;;;;;;;;;;5018211;28;20019;-27
2024/01/27 05:25:03;;;;;;;1.83;1.48;;;;;;;;;;5017974;28;20029;-27
2024/01/27 05:27:29;;;;;;;2.15;1.40;;;;;;;;;;5017942;28;20058;-28
2024/01/27 05:29:55;;;;;;;1.88;1.10;;;;;;;;;;5018233;28;20117;-27
2024/01/27 05:32:21;;;;;;;4.97;2.67;;;;;;;;;;5017815;28;20083;-28
2024/01/27 05:34:47;;;;;;;2.50;1.77;;;;;;;;;;5017848;28;20113;-30
2024/01/27 05:37:13;;;;;;;2.58;2.28;;;;;;;;;;5017815;28;20022;-31
2024/01/27 05:39:39;;;;;;;1.45;1.25;;;;;;;;;;5018024;28;20018;-31
2024/01/27 05:42:06;;;;;;;1.90;1.30;;;;;;;;;;5016670;28;20064;-30
2024/01/27 05:44:32;;;;;;;2.00;1.42;;;;;;;;;;5017672;28;20021;-28
2024/01/27 05:46:58;;;;;;;3.17;1.30;;;;;;;;;;5016684;28;20319;-34
2024/01/27 05:49:25;;;;;;;2.95;1.25;;;;;;;;;;5017870;28;20048;-28
2024/01/27 05:51:51;;;;;;;2.50;1.42;;;;;;;;;;5017479;28;20025;-26
2024/01/27 05:54:17;;;;;;;2.85;1.20;;;;;;;;;;5017500;28;20101;-27
2024/01/27 05:56:43;;;;;;;3.28;1.48;;;;;;;;;;5017377;28;20105;-31
2024/01/27 05:59:09;;;;;;;2.35;1.77;;;;;;;;;;5017429;28;20092;-29
2024/01/27 06:01:36;;;;;;;1.95;1.40;;;;;;;;;;5016429;28;20076;-30
2024/01/27 06:04:02;;;;;;;2.17;1.17;;;;;;;;;;5017082;28;20473;-30
2024/01/27 06:06:28;;;;;;;1.60;1.30;;;;;;;;;;5017294;28;20060;-27
2024/01/27 06:08:54;;;;;;;3.03;1.70;;;;;;;;;;5016494;28;20049;-29
2024/01/27 06:11:27;;;;;;;2.13;1.30;;;;;;;;;;5017149;28;20048;-28
2024/01/27 06:13:53;;;;;;;2.10;1.80;;;;;;;;;;5017040;28;20503;-29
2024/01/27 06:16:19;;;;;;;1.65;1.55;;;;;;;;;;5017038;28;20362;-28
2024/01/27 06:18:45;;;;;;;2.47;1.75;;;;;;;;;;5017230;28;20041;-27
2024/01/27 06:21:11;;;;;;;2.45;2.25;;;;;;;;;;5017237;28;20052;-29
2024/01/27 06:23:38;;;;;;;5.30;2.00;;;;;;;;;;5017135;28;20359;-28
2024/01/27 06:26:10;;;;;;;1.67;1.10;;;;;;;;;;5016854;28;20030;-30
2024/01/27 06:28:36;;;;;;;1.63;1.30;;;;;;;;;;5017055;28;20041;-30
2024/01/27 06:31:03;;;;;;;1.80;1.25;;;;;;;;;;5017123;28;20461;-30
2024/01/27 06:33:29;;;;;;;2.13;1.45;;;;;;;;;;5015786;28;20037;-30
2024/01/27 06:35:55;;;;;;;1.48;1.30;;;;;;;;;;5016911;28;20120;-30
2024/01/27 06:38:21;;;;;;;1.98;1.40;;;;;;;;;;5016681;28;20045;-31
2024/01/27 06:40:47;;;;;;;1.50;1.40;;;;;;;;;;5016635;28;20029;-30
2024/01/27 06:43:14;;;;;;;1.20;1.00;;;;;;;;;;5016515;28;20049;-27
2024/01/27 06:45:41;;;;;;;2.72;1.25;;;;;;;;;;5017035;28;20037;-27
2024/01/27 06:48:07;;;;;;;1.02;0.85;;;;;;;;;;5016539;28;20045;-29
2024/01/27 06:50:34;;;;;;;1.58;1.15;;;;;;;;;;5016436;28;20452;-28
2024/01/27 06:53:00;;;;;;;1.35;1.25;;;;;;;;;;5015384;28;20030;-28
2024/01/27 06:55:27;;;;;;;2.35;1.40;;;;;;;;;;5016320;28;20024;-29
2024/01/27 06:57:53;;;;;;;3.42;1.30;;;;;;;;;;5016851;28;20030;-29
2024/01/27 07:00:19;;;;;;;2.15;1.27;;;;;;;;;;5016523;28;20053;-32
2024/01/27 07:02:46;;;;;;;2.55;1.58;;;;;;;;;;5016104;28;20185;-30
2024/01/27 07:05:15;;;;;;;2.15;1.27;;;;;;;;;;5015253;28;20434;-31
2024/01/27 07:07:41;;;;;;;1.67;1.25;;;;;;;;;;5016377;28;20396;-27
2024/01/27 07:10:08;;;;;;;1.50;1.20;;;;;;;;;;5016333;28;20026;-27
2024/01/27 07:12:34;;;;;;;1.65;1.20;;;;;;;;;;5016149;28;20025;-28
2024/01/27 07:15:01;;;;;;;2.03;1.58;;;;;;;;;;5016009;28;20061;-28
2024/01/27 07:17:27;;;;;;;1.83;1.60;;;;;;;;;;5014881;28;20457;-27
2024/01/27 07:19:53;;;;;;;1.20;1.00;;;;;;;;;;5015761;28;20152;-30
2024/01/27 07:22:20;;;;;;;3.47;1.30;;;;;;;;;;5016089;28;20116;-30
2024/01/27 07:24:46;;;;;;;2.47;1.00;;;;;;;;;;5015813;28;20025;-32
2024/01/27 07:27:13;;;;;;;1.55;1.27;;;;;;;;;;5016069;28;20120;-33
2024/01/27 07:29:40;;;;;;;1.40;1.23;;;;;;;;;;5015538;28;20125;-32
2024/01/27 07:32:08;;;;;;;2.55;1.20;;;;;;;;;;5016173;28;20041;-29
2024/01/27 07:34:34;;;;;;;1.58;1.23;;;;;;;;;;5015592;28;20053;-29
2024/01/27 07:37:00;;;;;;;1.33;1.23;;;;;;;;;;5014589;28;20026;-31
2024/01/27 07:39:26;;;;;;;2.03;1.45;;;;;;;;;;5015806;28;20033;-29
2024/01/27 07:41:53;;;;;;;1.48;1.10;;;;;;;;;;5015995;28;20040;-30
2024/01/27 07:44:19;;;;;;;1.77;1.38;;;;;;;;;;5015764;28;20026;-29
2024/01/27 07:46:45;;;;;;;1.70;1.40;;;;;;;;;;5015722;28;20049;-27
2024/01/27 07:49:12;;;;;;;1.90;1.30;;;;;;;;;;5015417;28;20041;-29
2024/01/27 07:51:39;;;;;;;1.77;1.25;;;;;;;;;;5015620;28;20037;-30
2024/01/27 07:54:05;;;;;;;1.25;1.15;;;;;;;;;;5015279;28;20018;-29
2024/01/27 07:56:31;;;;;;;2.20;1.40;;;;;;;;;;5015210;28;20087;-26
2024/01/27 07:58:57;;;;;;;1.80;1.52;;;;;;;;;;5015259;28;20092;-28
2024/01/27 08:01:23;;;;;;;1.60;1.40;;;;;;;;;;5015242;28;20033;-30
2024/01/27 08:03:50;;;;;;;3.38;1.60;;;;;;;;;;5014861;28;20056;-28
2024/01/27 08:06:17;;;;;;;1.20;1.10;;;;;;;;;;5015530;28;20084;-32
2024/01/27 08:08:47;;;;;;;1.80;1.55;;;;;;;;;;5013847;28;20045;-30
2024/01/27 08:11:13;;;;;;;1.55;1.42;;;;;;;;;;5015622;28;20029;-28
2024/01/27 08:13:39;;;;;;;2.70;1.38;;;;;;;;;;5014972;28;20107;-30
2024/01/27 08:16:06;;;;;;;3.35;1.63;;;;;;;;;;5014943;28;20453;-29
2024/01/27 08:18:32;;;;;;;1.45;1.13;;;;;;;;;;5014932;28;20040;-28
2024/01/27 08:20:58;;;;;;;1.60;1.13;;;;;;;;;;5014970;28;20326;-29
2024/01/27 08:23:24;;;;;;;1.88;1.08;;;;;;;;;;5015102;28;20017;-30
2024/01/27 08:25:52;;;;;;;1.33;0.88;;;;;;;;;;5014953;28;20073;-30
2024/01/27 08:28:18;;;;;;;1.95;1.20;;;;;;;;;;5014894;28;20064;-30
2024/01/27 08:30:45;;;;;;;2.38;1.67;;;;;;;;;;5014874;28;20030;-32
2024/01/27 08:33:11;;;;;;;1.63;1.52;;;;;;;;;;5014233;28;20037;-29
2024/01/27 08:35:37;;;;;;;1.40;1.20;;;;;;;;;;5015012;28;20046;-30
2024/01/27 08:38:03;;;;;;;1.40;1.30;;;;;;;;;;5015042;28;20068;-33
2024/01/27 08:40:30;;;;;;;1.80;1.13;;;;;;;;;;5015061;28;20022;-33
2024/01/27 08:42:56;;;;;;;4.53;1.65;;;;;;;;;;5014666;28;20026;-28
2024/01/27 08:45:23;;;;;;;2.00;1.25;;;;;;;;;;5014775;28;20093;-26
2024/01/27 08:47:49;;;;;;;1.85;1.15;;;;;;;;;;5014980;28;20030;-27
2024/01/27 08:50:15;;;;;;;2.30;1.20;;;;;;;;;;5014718;28;20046;-30
2024/01/27 08:52:41;;;;;;;1.30;1.10;;;;;;;;;;5014580;28;20029;-30
2024/01/27 08:55:07;;;;;;;1.33;1.20;;;;;;;;;;5014679;28;20380;-30
2024/01/27 08:57:33;;;;;;;1.73;1.00;;;;;;;;;;5014544;28;20022;-29
2024/01/27 09:00:00;;;;;;;1.70;1.30;;;;;;;;;;5014873;28;20037;-31
2024/01/27 09:02:26;;;;;;;1.38;1.13;;;;;;;;;;5014502;28;20018;-29
2024/01/27 09:04:52;;;;;;;1.48;1.20;;;;;;;;;;5014419;28;20381;-31
2024/01/27 09:07:18;;;;;;;1.35;1.25;;;;;;;;;;5014493;28;20025;-30
2024/01/27 09:09:45;;;;;;;1.02;0.93;;;;;;;;;;5015036;28;20034;-32
2024/01/27 09:12:11;;;;;;;3.08;1.48;;;;;;;;;;5014692;28;20092;-28
2024/01/27 09:14:37;;;;;;;2.70;1.30;;;;;;;;;;5014976;28;20026;-28
2024/01/27 09:17:04;;;;;;;2.05;1.15;;;;;;;;;;5014384;28;20026;-28
2024/01/27 09:19:30;;;;;;;2.00;1.13;;;;;;;;;;5014433;28;20026;-30
2024/01/27 09:21:56;;;;;;;1.48;1.38;;;;;;;;;;5014368;28;20408;-29
2024/01/27 09:24:22;;;;;;;2.67;1.48;;;;;;;;;;5014653;28;20448;-28
2024/01/27 09:26:48;;;;;;;2.80;1.55;;;;;;;;;;5014295;28;20026;-29
2024/01/27 09:29:14;;;;;;;1.40;1.10;;;;;;;;;;5014339;28;20026;-28
2024/01/27 09:31:40;;;;;;;1.55;1.45;;;;;;;;;;5014280;28;20030;-27
2024/01/27 09:34:07;;;;;;;1.85;1.20;;;;;;;;;;5014211;28;20112;-28
2024/01/27 09:36:33;;;;;;;1.73;1.40;;;;;;;;;;5014681;28;20026;-28
2024/01/27 09:38:59;;;;;;;1.55;1.17;;;;;;;;;;5014236;28;20026;-29
2024/01/27 09:41:30;;;;;;;2.35;1.33;;;;;;;;;;5014233;28;20088;-31
2024/01/27 09:43:59;;;;;;;2.58;1.55;;;;;;;;;;5014530;28;20021;-29
2024/01/27 09:46:26;;;;;;;1.98;1.23;;;;;;;;;;5017693;28;20109;-27
2024/01/27 09:48:53;;;;;;;2.08;1.42;;;;;;;;;;5017677;28;20040;-28
2024/01/27 09:51:20;;;;;;;1.98;1.45;;;;;;;;;;5017548;28;20113;-30
2024/01/27 09:53:46;;;;;;;1.23;0.98;;;;;;;;;;5017444;28;20034;-27
2024/01/27 09:56:18;;;;;;;2.38;1.40;;;;;;;;;;5017398;28;20040;-29
2024/01/27 09:58:44;;;;;;;1.50;1.40;;;;;;;;;;5016761;28;20022;-28
2024/01/27 10:01:11;;;;;;;1.38;1.20;;;;;;;;;;5017418;28;20033;-27
2024/01/27 10:03:39;;;;;;;1.60;1.42;;;;;;;;;;5017072;28;20099;-27
2024/01/27 10:06:06;;;;;;;1.30;1.20;;;;;;;;;;5017331;28;20034;-30
2024/01/27 10:08:32;;;;;;;2.08;1.58;;;;;;;;;;5017275;28;20052;-28
2024/01/27 10:10:59;;;;;;;2.72;1.60;;;;;;;;;;5017208;28;20112;-28
2024/01/27 10:13:28;;;;;;;1.95;1.30;;;;;;;;;;5017253;28;20111;-30
2024/01/27 10:16:04;;;;;;;2.38;1.60;;;;;;;;;;5017354;28;20353;-31
2024/01/27 10:18:30;;;;;;;1.35;1.10;;;;;;;;;;5017643;28;20033;-31
2024/01/27 10:20:57;;;;;;;1.45;0.93;;;;;;;;;;5017022;28;20022;-29
2024/01/27 10:23:23;;;;;;;1.58;1.30;;;;;;;;;;5016950;28;20034;-31
2024/01/27 10:25:50;;;;;;;1.25;0.80;;;;;;;;;;5016932;28;20029;-28
2024/01/27 10:28:16;;;;;;;1.33;1.00;;;;;;;;;;5017454;28;20033;-29
2024/01/27 10:30:43;;;;;;;1.63;1.13;;;;;;;;;;5016820;28;20054;-28
2024/01/27 10:33:16;;;;;;;1.98;1.10;;;;;;;;;;5016675;28;20030;-29
2024/01/27 10:35:43;;;;;;;1.85;1.25;;;;;;;;;;5016992;28;20026;-29
2024/01/27 10:38:09;;;;;;;1.52;1.20;;;;;;;;;;5016718;28;20046;-32
2024/01/27 10:40:37;;;;;;;2.40;1.40;;;;;;;;;;5016684;28;20361;-33
2024/01/27 10:43:03;;;;;;;1.90;1.30;;;;;;;;;;5016560;28;20087;-28
2024/01/27 10:45:39;;;;;;;3.20;1.75;;;;;;;;;;5016546;28;20033;-31
2024/01/27 10:48:07;;;;;;;1.55;1.40;;;;;;;;;;5016523;28;20034;-28
2024/01/27 10:50:37;;;;;;;3.00;1.75;;;;;;;;;;5016450;28;20022;-31
2024/01/27 10:53:05;;;;;;;1.52;1.25;;;;;;;;;;5016660;28;20104;-27
2024/01/27 10:55:31;;;;;;;3.10;1.42;;;;;;;;;;5016450;28;20017;-30
2024/01/27 10:58:01;;;;;;;1.48;1.33;;;;;;;;;;5016533;28;20033;-30
2024/01/27 11:00:29;;;;;;;1.98;1.42;;;;;;;;;;5016252;28;20056;-27
2024/01/27 11:02:58;;;;;;;0.95;0.93;;;;;;;;;;5016211;28;20041;-31
2024/01/27 11:05:24;;;;;;;1.77;1.65;;;;;;;;;;5016550;28;20353;-30
2024/01/27 11:07:51;;;;;;;1.50;1.20;;;;;;;;;;5016425;28;20358;-30
2024/01/27 11:10:18;;;;;;;2.28;1.40;;;;;;;;;;5016399;28;20025;-31
2024/01/27 11:12:44;;;;;;;2.08;1.10;;;;;;;;;;5015050;28;20057;-29
2024/01/27 11:15:10;;;;;;;2.58;1.75;;;;;;;;;;5016276;28;20354;-29
2024/01/27 11:17:41;;;;;;;1.50;1.15;;;;;;;;;;5016172;28;20429;-30
2024/01/27 11:20:08;;;;;;;2.25;1.10;;;;;;;;;;5015892;28;20453;-27
2024/01/27 11:22:34;;;;;;;1.45;1.35;;;;;;;;;;5015821;28;20022;-31
2024/01/27 11:25:08;;;;;;;1.65;1.40;;;;;;;;;;5016130;28;20021;-30
2024/01/27 11:27:35;;;;;;;1.02;0.75;;;;;;;;;;5015846;28;20068;-31
2024/01/27 11:30:01;;;;;;;1.95;1.60;;;;;;;;;;5015152;28;20026;-29
2024/01/27 11:32:29;;;;;;;2.28;1.25;;;;;;;;;;5015913;28;20401;-33
2024/01/27 11:34:55;;;;;;;2.55;1.90;;;;;;;;;;5015927;28;20091;-29
2024/01/27 11:37:24;;;;;;;1.83;1.67;;;;;;;;;;5016101;28;20030;-27
2024/01/27 11:39:52;;;;;;;2.90;1.50;;;;;;;;;;5015566;28;20021;-33
2024/01/27 11:42:18;;;;;;;1.27;0.93;;;;;;;;;;5015763;28;20353;-30
2024/01/27 11:44:45;;;;;;;1.33;1.23;;;;;;;;;;5015767;28;20049;-29
2024/01/27 11:47:18;;;;;;;1.08;1.05;;;;;;;;;;5015401;28;20028;-30
2024/01/27 11:49:52;;;;;;;1.90;1.40;;;;;;;;;;5015425;28;20033;-28
2024/01/27 11:52:18;;;;;;;1.83;1.40;;;;;;;;;;5015309;28;20452;-32
2024/01/27 11:54:44;;;;;;;1.15;0.95;;;;;;;;;;5015551;28;20041;-28
2024/01/27 11:57:10;;;;;;;3.00;1.30;;;;;;;;;;5015785;28;20029;-28
2024/01/27 11:59:37;;;;;;;1.40;1.30;;;;;;;;;;5015261;28;20072;-28
2024/01/27 12:02:03;;;;;;;1.50;1.30;;;;;;;;;;5015188;28;20017;-28
2024/01/27 12:04:29;;;;;;;1.75;1.10;;;;;;;;;;5014973;28;20049;-27
2024/01/27 12:06:55;;;;;;;1.88;1.00;;;;;;;;;;5014702;28;20113;-30
2024/01/27 12:09:22;;;;;;;1.20;1.10;;;;;;;;;;5015189;28;20029;-29
2024/01/27 12:11:48;;;;;;;2.03;1.35;;;;;;;;;;5015304;28;20030;-31
2024/01/27 12:14:14;;;;;;;2.15;1.15;;;;;;;;;;5015346;28;20108;-31
2024/01/27 12:16:41;;;;;;;1.40;1.30;;;;;;;;;;5015261;28;20037;-33
2024/01/27 12:19:11;;;;;;;1.27;1.13;;;;;;;;;;5015079;28;20022;-30
2024/01/27 12:21:37;;;;;;;1.10;0.98;;;;;;;;;;5015250;28;20040;-30
2024/01/27 12:24:03;;;;;;;1.02;0.95;;;;;;;;;;5013939;28;20077;-29
2024/01/27 12:26:30;;;;;;;2.17;1.45;;;;;;;;;;5014870;28;20026;-28
2024/01/27 12:28:57;;;;;;;2.65;1.38;;;;;;;;;;5015134;28;20037;-33
2024/01/27 12:31:24;;;;;;;2.88;1.23;;;;;;;;;;5014932;28;20084;-28
2024/01/27 12:33:55;;;;;;;1.50;1.20;;;;;;;;;;5014766;28;20454;-29
2024/01/27 12:36:21;;;;;;;1.20;1.10;;;;;;;;;;5015017;28;20057;-31
2024/01/27 12:38:48;;;;;;;2.33;1.05;;;;;;;;;;5014787;28;20033;-31
2024/01/27 12:41:14;;;;;;;1.70;1.30;;;;;;;;;;5015029;28;20028;-32
2024/01/27 12:43:40;;;;;;;1.90;1.25;;;;;;;;;;5015222;28;20025;-32
2024/01/27 12:46:06;;;;;;;3.63;1.25;;;;;;;;;;5014755;28;20034;-30
2024/01/27 12:48:32;;;;;;;2.20;2.05;;;;;;;;;;5014951;28;20034;-29
2024/01/27 12:51:00;;;;;;;2.20;1.50;;;;;;;;;;5014685;28;20366;-27
2024/01/27 12:53:26;;;;;;;1.70;1.30;;;;;;;;;;5014680;28;20033;-30
2024/01/27 12:55:52;;;;;;;1.38;1.27;;;;;;;;;;5014565;28;20033;-27
2024/01/27 12:58:18;;;;;;;1.85;1.50;;;;;;;;;;5014912;28;20037;-30
2024/01/27 13:00:44;;;;;;;1.45;1.23;;;;;;;;;;5014638;28;20033;-29
2024/01/27 13:03:10;;;;;;;1.83;1.40;;;;;;;;;;5014339;28;20481;-33
2024/01/27 13:05:38;;;;;;;1.75;1.27;;;;;;;;;;5014525;28;20107;-33
2024/01/27 13:08:05;;;;;;;1.95;1.10;;;;;;;;;;5014795;28;20026;-30
2024/01/27 13:10:31;;;;;;;1.58;1.05;;;;;;;;;;5014526;28;20088;-32
2024/01/27 13:12:58;;;;;;;2.72;1.80;;;;;;;;;;5014397;28;20022;-31
2024/01/27 13:15:26;;;;;;;2.80;1.60;;;;;;;;;;5014765;28;20054;-29
2024/01/27 13:17:52;;;;;;;1.52;1.42;;;;;;;;;;5014678;28;20034;-31
2024/01/27 13:20:18;;;;;;;2.25;1.25;;;;;;;;;;5018195;28;20022;-33
2024/01/27 13:22:44;;;;;;;1.48;1.33;;;;;;;;;;5017073;28;20037;-30
2024/01/27 13:25:11;;;;;;;1.30;1.13;;;;;;;;;;5018403;28;20412;-31
2024/01/27 13:27:37;;;;;;;1.45;1.15;;;;;;;;;;5018803;28;20088;-31
2024/01/27 13:30:04;;;;;;;1.33;1.23;;;;;;;;;;5018525;28;20353;-29
2024/01/27 13:32:30;;;;;;;3.65;1.63;;;;;;;;;;5018081;28;20021;-29
2024/01/27 13:34:56;;;;;;;1.50;1.23;;;;;;;;;;5017888;28;20034;-27
2024/01/27 13:37:22;;;;;;;1.55;1.45;;;;;;;;;;5017838;28;20101;-29
2024/01/27 13:39:48;;;;;;;1.33;1.20;;;;;;;;;;5018360;28;20056;-28
2024/01/27 13:42:14;;;;;;;1.52;1.40;;;;;;;;;;5018137;28;20041;-29
2024/01/27 13:44:41;;;;;;;1.40;1.10;;;;;;;;;;5017758;28;20022;-29
2024/01/27 13:47:09;;;;;;;1.73;1.35;;;;;;;;;;5017991;28;20046;-30
2024/01/27 13:49:36;;;;;;;1.70;1.60;;;;;;;;;;5017561;28;20485;-30
2024/01/27 13:52:02;;;;;;;2.75;1.10;;;;;;;;;;5017803;28;20381;-31
2024/01/27 13:54:28;;;;;;;2.10;1.20;;;;;;;;;;5017555;28;20034;-31
2024/01/27 13:56:55;;;;;;;1.50;1.40;;;;;;;;;;5017745;28;20026;-31
2024/01/27 13:59:21;;;;;;;1.70;1.13;;;;;;;;;;5017470;28;20026;-28
2024/01/27 14:01:47;;;;;;;2.72;0.98;;;;;;;;;;5017917;28;20361;-30
2024/01/27 14:04:14;;;;;;;2.03;1.20;;;;;;;;;;5017377;28;20053;-29
2024/01/27 14:06:40;;;;;;;1.75;1.25;;;;;;;;;;5017860;28;20026;-30
2024/01/27 14:09:06;;;;;;;2.28;1.50;;;;;;;;;;5017347;28;20056;-28
2024/01/27 14:11:32;;;;;;;1.38;1.23;;;;;;;;;;5017263;28;20100;-25
2024/01/27 14:13:59;;;;;;;3.00;1.10;;;;;;;;;;5017151;28;20038;-28
2024/01/27 14:16:25;;;;;;;2.55;1.60;;;;;;;;;;5017134;28;20360;-29
2024/01/27 14:18:51;;;;;;;1.88;1.42;;;;;;;;;;5017132;28;20291;-30
2024/01/27 14:21:17;;;;;;;1.17;1.08;;;;;;;;;;5017616;28;20026;-29
2024/01/27 14:23:43;;;;;;;1.90;1.55;;;;;;;;;;5016899;28;20026;-30
2024/01/27 14:26:14;;;;;;;1.27;1.10;;;;;;;;;;5017479;28;20022;-29
2024/01/27 14:28:41;;;;;;;1.75;1.65;;;;;;;;;;5016946;28;20026;-29
2024/01/27 14:31:07;;;;;;;4.70;1.30;;;;;;;;;;5016047;28;20030;-28
2024/01/27 14:33:34;;;;;;;1.27;1.10;;;;;;;;;;5016728;28;20040;-31
2024/01/27 14:36:00;;;;;;;1.55;1.30;;;;;;;;;;5016710;28;20057;-28
2024/01/27 14:38:26;;;;;;;1.95;1.65;;;;;;;;;;5016788;28;20030;-31